createdAt,value
2023-03-26T00:01:39.438Z,97273.25
2023-03-26T00:04:06.627Z,97268.09
2023-03-26T00:06:37.419Z,97265.63
2023-03-26T00:09:04.329Z,97274.06
2023-03-26T00:11:30.950Z,97274.03
2023-03-26T00:13:57.779Z,97289.59
2023-03-26T00:16:29.079Z,97298.19
2023-03-26T00:18:55.882Z,97286.47
2023-03-26T00:21:29.346Z,97290.78
2023-03-26T00:24:09.820Z,97296.88
2023-03-26T00:26:37.663Z,97302.97
2023-03-26T00:29:04.507Z,97301.16
2023-03-26T00:31:31.123Z,97306.94
2023-03-26T00:33:57.832Z,97300.50
2023-03-26T00:36:25.751Z,97295.19
2023-03-26T00:38:53.600Z,97298.19
2023-03-26T00:41:25.514Z,97290.06
2023-03-26T00:43:56.677Z,97299.63
2023-03-26T00:46:24.344Z,97288.84
2023-03-26T00:48:50.910Z,97289.69
2023-03-26T00:51:18.011Z,97289.84
2023-03-26T00:53:45.794Z,97292.81
2023-03-26T00:56:12.490Z,97285.66
2023-03-26T00:58:39.125Z,97287.53
2023-03-26T01:01:08.768Z,97291.69
2023-03-26T01:03:36.314Z,97290.75
2023-03-26T01:06:08.144Z,97287.47
2023-03-26T01:08:38.391Z,97286.34
2023-03-26T01:11:13.942Z,97297.22
2023-03-26T01:13:49.896Z,97283.97
2023-03-26T01:16:29.802Z,97293.91
2023-03-26T01:18:58.780Z,97291.78
2023-03-26T01:21:30.080Z,97286.63
2023-03-26T01:24:05.114Z,97287.09
2023-03-26T01:26:43.356Z,97287.44
2023-03-26T01:29:16.364Z,97289.94
2023-03-26T01:32:12.142Z,97284.16
2023-03-26T01:34:52.269Z,97291.97
2023-03-26T01:37:46.705Z,97296.41
2023-03-26T01:40:28.933Z,97288.00
2023-03-26T01:43:09.984Z,97283.66
2023-03-26T01:45:37.638Z,97281.19
2023-03-26T01:48:04.513Z,97290.94
2023-03-26T01:50:31.286Z,97283.97
2023-03-26T01:52:58.055Z,97285.31
2023-03-26T01:55:26.970Z,97280.84
2023-03-26T01:57:59.217Z,97274.72
2023-03-26T02:00:31.943Z,97278.06
2023-03-26T02:03:27.921Z,97276.72
2023-03-26T02:06:17.479Z,97270.44
2023-03-26T02:09:11.688Z,97275.72
2023-03-26T02:11:38.370Z,97269.63
2023-03-26T02:14:05.916Z,97271.59
2023-03-26T02:16:32.491Z,97270.13
2023-03-26T02:18:59.255Z,97272.09
2023-03-26T02:21:26.354Z,97267.63
2023-03-26T02:24:04.268Z,97261.84
2023-03-26T02:26:31.727Z,97262.34
2023-03-26T02:28:58.469Z,97263.34
2023-03-26T02:31:28.006Z,97258.19
2023-03-26T02:33:55.487Z,97263.81
2023-03-26T02:36:27.519Z,97267.13
2023-03-26T02:38:54.843Z,97258.19
2023-03-26T02:41:21.520Z,97256.88
2023-03-26T02:43:48.058Z,97252.41
2023-03-26T02:46:14.566Z,97252.41
2023-03-26T02:48:41.564Z,97243.47
2023-03-26T02:51:08.094Z,97237.34
2023-03-26T02:53:34.641Z,97238.19
2023-03-26T02:56:01.113Z,97233.38
2023-03-26T02:58:30.151Z,97235.22
2023-03-26T03:00:56.765Z,97231.25
2023-03-26T03:03:26.851Z,97228.09
2023-03-26T03:05:54.382Z,97226.09
2023-03-26T03:08:21.943Z,97220.63
2023-03-26T03:10:57.812Z,97218.13
2023-03-26T03:13:24.300Z,97209.50
2023-03-26T03:15:50.860Z,97218.75
2023-03-26T03:18:17.421Z,97219.94
2023-03-26T03:20:44.603Z,97217.09
2023-03-26T03:23:11.396Z,97209.63
2023-03-26T03:25:38.339Z,97212.19
2023-03-26T03:28:04.966Z,97211.69
2023-03-26T03:30:31.537Z,97204.72
2023-03-26T03:32:58.523Z,97208.63
2023-03-26T03:35:25.785Z,97206.09
2023-03-26T03:37:52.257Z,97218.84
2023-03-26T03:40:19.701Z,97223.97
2023-03-26T03:42:46.793Z,97226.81
2023-03-26T03:45:13.381Z,97228.47
2023-03-26T03:47:39.944Z,97222.66
2023-03-26T03:50:07.235Z,97215.56
2023-03-26T03:52:33.719Z,97215.53
2023-03-26T03:55:02.769Z,97201.88
2023-03-26T03:57:29.339Z,97208.25
2023-03-26T03:59:58.973Z,97204.94
2023-03-26T04:02:34.976Z,97197.59
2023-03-26T04:05:02.524Z,97192.63
2023-03-26T04:07:31.142Z,97191.13
2023-03-26T04:10:00.183Z,97186.66
2023-03-26T04:12:30.025Z,97175.75
2023-03-26T04:14:56.605Z,97174.75
2023-03-26T04:17:23.343Z,97176.06
2023-03-26T04:19:50.473Z,97180.31
2023-03-26T04:22:18.365Z,97164.75
2023-03-26T04:24:45.322Z,97180.38
2023-03-26T04:27:14.214Z,97177.25
2023-03-26T04:29:42.906Z,97177.03
2023-03-26T04:32:29.788Z,97168.56
2023-03-26T04:35:00.313Z,97168.56
2023-03-26T04:37:32.281Z,97181.53
2023-03-26T04:39:59.206Z,97179.38
2023-03-26T04:42:25.805Z,97182.84
2023-03-26T04:44:52.401Z,97182.00
2023-03-26T04:47:18.946Z,97182.00
2023-03-26T04:49:46.135Z,97178.16
2023-03-26T04:52:12.698Z,97181.31
2023-03-26T04:54:39.488Z,97175.38
2023-03-26T04:57:29.682Z,97178.38
2023-03-26T04:59:56.304Z,97177.41
2023-03-26T05:02:23.045Z,97173.13
2023-03-26T05:04:50.811Z,97175.50
2023-03-26T05:07:19.456Z,97170.09
2023-03-26T05:09:46.089Z,97176.66
2023-03-26T05:12:12.677Z,97175.69
2023-03-26T05:14:39.139Z,97170.69
2023-03-26T05:17:10.849Z,97169.28
2023-03-26T05:19:38.961Z,97166.88
2023-03-26T05:22:05.405Z,97166.41
2023-03-26T05:24:31.894Z,97160.75
2023-03-26T05:26:58.374Z,97158.19
2023-03-26T05:29:24.944Z,97151.78
2023-03-26T05:31:51.659Z,97151.78
2023-03-26T05:34:19.624Z,97146.00
2023-03-26T05:36:46.172Z,97145.66
2023-03-26T05:39:14.218Z,97145.66
2023-03-26T05:41:40.862Z,97147.34
2023-03-26T05:44:07.407Z,97145.06
2023-03-26T05:46:33.959Z,97135.34
2023-03-26T05:49:00.857Z,97146.00
2023-03-26T05:51:27.316Z,97139.78
2023-03-26T05:53:53.777Z,97137.53
2023-03-26T05:56:20.535Z,97128.97
2023-03-26T05:58:47.512Z,97129.91
2023-03-26T06:01:17.128Z,97122.19
2023-03-26T06:03:47.466Z,97115.59
2023-03-26T06:06:17.765Z,97104.78
2023-03-26T06:08:48.997Z,97095.16
2023-03-26T06:11:29.623Z,97100.16
2023-03-26T06:13:56.126Z,97100.38
2023-03-26T06:16:26.551Z,97098.59
2023-03-26T06:18:56.594Z,97104.75
2023-03-26T06:21:24.943Z,97095.00
2023-03-26T06:23:51.763Z,97098.34
2023-03-26T06:26:18.410Z,97090.53
2023-03-26T06:28:44.923Z,97087.75
2023-03-26T06:31:11.922Z,97085.25
2023-03-26T06:33:38.603Z,97077.53
2023-03-26T06:36:05.500Z,97072.56
2023-03-26T06:38:31.993Z,97071.41
2023-03-26T06:41:03.309Z,97063.81
2023-03-26T06:43:33.572Z,97078.84
2023-03-26T06:46:01.364Z,97070.91
2023-03-26T06:48:27.879Z,97065.47
2023-03-26T06:50:54.796Z,97057.38
2023-03-26T06:53:21.430Z,97065.63
2023-03-26T06:55:47.913Z,97055.06
2023-03-26T06:58:14.496Z,97050.44
2023-03-26T07:00:42.129Z,97054.75
2023-03-26T07:03:08.744Z,97048.47
2023-03-26T07:05:35.380Z,97049.78
2023-03-26T07:08:02.881Z,97047.50
2023-03-26T07:10:29.361Z,97048.84
2023-03-26T07:12:56.416Z,97040.56
2023-03-26T07:15:23.992Z,97045.22
2023-03-26T07:17:50.589Z,97040.91
2023-03-26T07:20:17.192Z,97044.22
2023-03-26T07:22:43.857Z,97035.97
2023-03-26T07:25:11.210Z,97023.56
2023-03-26T07:27:37.753Z,97025.22
2023-03-26T07:30:22.713Z,97018.25
2023-03-26T07:32:59.563Z,97014.47
2023-03-26T07:35:57.068Z,97015.44
2023-03-26T07:38:46.305Z,97014.78
2023-03-26T07:41:17.967Z,97011.28
2023-03-26T07:44:09.029Z,97003.13
2023-03-26T07:46:36.938Z,97004.63
2023-03-26T07:49:05.185Z,97012.72
2023-03-26T07:51:32.516Z,97008.75
2023-03-26T07:54:00.524Z,96998.84
2023-03-26T07:56:34.768Z,97001.16
2023-03-26T07:59:34.582Z,96992.66
2023-03-26T08:02:19.602Z,96986.72
2023-03-26T08:04:55.447Z,96979.50
2023-03-26T08:08:05.004Z,96975.88
2023-03-26T08:10:45.908Z,96961.56
2023-03-26T08:13:17.694Z,96962.38
2023-03-26T08:16:07.972Z,96960.50
2023-03-26T08:18:44.736Z,96954.69
2023-03-26T08:21:14.134Z,96958.97
2023-03-26T08:23:59.098Z,96942.44
2023-03-26T08:26:31.434Z,96940.34
2023-03-26T08:29:10.014Z,96939.50
2023-03-26T08:31:38.996Z,96933.06
2023-03-26T08:34:06.147Z,96930.25
2023-03-26T08:36:32.646Z,96929.88
2023-03-26T08:38:59.536Z,96934.50
2023-03-26T08:41:35.272Z,96926.69
2023-03-26T08:44:10.898Z,96931.06
2023-03-26T08:46:57.302Z,96920.66
2023-03-26T08:49:35.935Z,96923.16
2023-03-26T08:52:30.774Z,96914.94
2023-03-26T08:55:09.140Z,96905.03
2023-03-26T08:57:44.654Z,96899.31
2023-03-26T09:00:38.102Z,96890.81
2023-03-26T09:03:08.715Z,96893.44
2023-03-26T09:05:44.132Z,96884.09
2023-03-26T09:08:20.652Z,96872.97
2023-03-26T09:11:06.329Z,96876.28
2023-03-26T09:13:55.466Z,96863.03
2023-03-26T09:16:33.603Z,96854.50
2023-03-26T09:19:24.809Z,96863.56
2023-03-26T09:22:16.641Z,96852.66
2023-03-26T09:25:13.484Z,96839.31
2023-03-26T09:28:24.821Z,96830.25
2023-03-26T09:31:06.380Z,96824.13
2023-03-26T09:33:43.564Z,96817.19
2023-03-26T09:36:22.741Z,96818.28
2023-03-26T09:38:53.662Z,96813.50
2023-03-26T09:41:35.722Z,96811.47
2023-03-26T09:44:27.703Z,96811.41
2023-03-26T09:47:19.750Z,96799.72
2023-03-26T09:49:54.741Z,96788.19
2023-03-26T09:52:40.378Z,96791.13
2023-03-26T09:55:26.027Z,96786.72
2023-03-26T09:58:11.446Z,96783.31
2023-03-26T10:01:00.904Z,96780.59
2023-03-26T10:03:38.114Z,96784.53
2023-03-26T10:06:49.673Z,96789.72
2023-03-26T10:09:30.340Z,96784.16
2023-03-26T10:12:33.888Z,96777.75
2023-03-26T10:15:19.040Z,96782.50
2023-03-26T10:18:27.549Z,96779.69
2023-03-26T10:21:04.628Z,96771.28
2023-03-26T10:23:46.237Z,96771.91
2023-03-26T10:27:09.007Z,96769.78
2023-03-26T10:29:43.028Z,96776.38
2023-03-26T10:32:31.330Z,96786.78
2023-03-26T10:35:45.651Z,96784.59
2023-03-26T10:38:30.743Z,96772.72
2023-03-26T10:41:08.833Z,96776.75
2023-03-26T10:44:07.890Z,96771.34
2023-03-26T10:46:51.289Z,96780.19
2023-03-26T10:49:49.041Z,96790.09
2023-03-26T10:52:21.966Z,96789.31
2023-03-26T10:55:12.108Z,96781.53
2023-03-26T10:57:53.377Z,96784.84
2023-03-26T11:00:28.972Z,96786.97
2023-03-26T11:03:29.553Z,96792.00
2023-03-26T11:06:23.677Z,96789.03
2023-03-26T11:09:01.711Z,96782.84
2023-03-26T11:12:25.764Z,96779.84
2023-03-26T11:15:03.465Z,96787.38
2023-03-26T11:17:43.811Z,96786.03
2023-03-26T11:20:44.498Z,96785.44
2023-03-26T11:23:29.598Z,96784.72
2023-03-26T11:26:04.773Z,96779.31
2023-03-26T11:28:40.357Z,96775.56
2023-03-26T11:31:19.127Z,96783.66
2023-03-26T11:33:48.048Z,96763.91
2023-03-26T11:36:27.081Z,96783.97
2023-03-26T11:38:55.041Z,96770.16
2023-03-26T11:41:26.136Z,96771.84
2023-03-26T11:43:55.908Z,96772.78
2023-03-26T11:46:23.329Z,96773.25
2023-03-26T11:48:52.741Z,96764.63
2023-03-26T11:51:39.776Z,96769.66
2023-03-26T11:54:07.804Z,96762.66
2023-03-26T11:56:35.990Z,96766.09
2023-03-26T11:59:14.774Z,96755.03
2023-03-26T12:01:52.038Z,96745.50
2023-03-26T12:04:20.345Z,96740.03
2023-03-26T12:07:17.030Z,96738.91
2023-03-26T12:09:56.430Z,96728.00
2023-03-26T12:12:34.326Z,96727.34
2023-03-26T12:15:01.048Z,96713.56
2023-03-26T12:17:31.850Z,96690.38
2023-03-26T12:19:58.584Z,96674.06
2023-03-26T12:22:36.440Z,96682.75
2023-03-26T12:25:12.878Z,96684.41
2023-03-26T12:27:43.114Z,96691.56
2023-03-26T12:30:31.054Z,96677.41
2023-03-26T12:33:00.896Z,96676.06
2023-03-26T12:35:29.189Z,96657.16
2023-03-26T12:37:57.968Z,96659.13
2023-03-26T12:40:32.478Z,96651.59
2023-03-26T12:44:55.921Z,96659.31
2023-03-26T12:46:20.662Z,96658.69
2023-03-26T12:48:37.357Z,96665.38
2023-03-26T12:51:17.046Z,96655.13
2023-03-26T12:53:50.358Z,96640.63
2023-03-26T12:56:21.866Z,96640.00
2023-03-26T12:59:00.415Z,96636.84
2023-03-26T13:01:28.651Z,96630.44
2023-03-26T13:04:10.081Z,96631.59
2023-03-26T13:07:00.556Z,96629.59
2023-03-26T13:10:04.328Z,96634.56
2023-03-26T13:12:49.622Z,96628.44
2023-03-26T13:16:04.181Z,96619.91
2023-03-26T13:19:24.529Z,96614.97
2023-03-26T13:23:06.759Z,96605.44
2023-03-26T13:26:28.405Z,96589.63
2023-03-26T13:29:23.696Z,96588.38
2023-03-26T13:31:58.047Z,96589.91
2023-03-26T13:34:40.431Z,96589.59
2023-03-26T13:37:31.251Z,96576.34
2023-03-26T13:40:19.836Z,96574.91
2023-03-26T13:43:01.903Z,96565.09
2023-03-26T13:45:47.693Z,96564.94
2023-03-26T13:48:18.404Z,96562.78
2023-03-26T13:50:52.389Z,96546.97
2023-03-26T13:53:22.940Z,96556.44
2023-03-26T13:55:52.576Z,96554.00
2023-03-26T13:58:34.764Z,96553.38
2023-03-26T14:01:10.103Z,96540.88
2023-03-26T14:04:06.040Z,96548.03
2023-03-26T14:06:54.029Z,96537.72
2023-03-26T14:09:45.622Z,96541.63
2023-03-26T14:12:21.337Z,96545.88
2023-03-26T14:15:09.326Z,96542.19
2023-03-26T14:17:38.924Z,96551.06
2023-03-26T14:20:17.618Z,96542.63
2023-03-26T14:22:58.997Z,96528.69
2023-03-26T14:25:50.745Z,96520.16
2023-03-26T14:28:41.449Z,96508.53
2023-03-26T14:31:41.978Z,96501.31
2023-03-26T14:34:19.725Z,96503.63
2023-03-26T14:36:53.714Z,96485.16
2023-03-26T14:39:28.845Z,96479.19
2023-03-26T14:42:02.759Z,96488.59
2023-03-26T14:44:48.510Z,96477.75
2023-03-26T14:47:23.878Z,96463.94
2023-03-26T14:50:31.536Z,96463.72
2023-03-26T14:53:00.863Z,96467.72
2023-03-26T14:55:49.904Z,96470.41
2023-03-26T14:58:23.802Z,96450.81
2023-03-26T15:01:11.857Z,96453.38
2023-03-26T15:04:02.778Z,96464.66
2023-03-26T15:07:12.762Z,96460.06
2023-03-26T15:10:01.101Z,96458.25
2023-03-26T15:12:43.304Z,96472.25
2023-03-26T15:15:31.679Z,96467.78
2023-03-26T15:18:16.563Z,96484.97
2023-03-26T15:20:48.777Z,96481.25
2023-03-26T15:23:39.304Z,96472.66
2023-03-26T15:26:46.514Z,96475.09
2023-03-26T15:29:22.001Z,96477.28
2023-03-26T15:32:16.949Z,96472.53
2023-03-26T15:34:51.364Z,96464.97
2023-03-26T15:37:42.653Z,96480.72
2023-03-26T15:40:09.220Z,96495.56
2023-03-26T15:42:45.645Z,96492.53
2023-03-26T15:45:18.001Z,96501.16
2023-03-26T15:48:11.615Z,96505.06
2023-03-26T15:51:00.097Z,96492.34
2023-03-26T15:53:38.367Z,96486.59
2023-03-26T15:56:20.573Z,96492.88
2023-03-26T15:58:52.228Z,96491.03
2023-03-26T16:01:33.774Z,96482.69
2023-03-26T16:04:38.776Z,96491.47
2023-03-26T16:07:29.601Z,96481.47
2023-03-26T16:10:17.115Z,96478.38
2023-03-26T16:12:47.285Z,96482.47
2023-03-26T16:15:21.175Z,96480.44
2023-03-26T16:18:06.781Z,96476.78
2023-03-26T16:20:34.966Z,96484.16
2023-03-26T16:23:04.624Z,96480.69
2023-03-26T16:25:35.381Z,96482.69
2023-03-26T16:28:10.792Z,96481.66
2023-03-26T16:30:37.613Z,96477.16
2023-03-26T16:33:15.593Z,96480.84
2023-03-26T16:36:34.434Z,96471.41
2023-03-26T16:39:07.485Z,96483.25
2023-03-26T16:41:37.319Z,96484.88
2023-03-26T16:44:26.535Z,96480.38
2023-03-26T16:47:08.315Z,96485.28
2023-03-26T16:50:08.644Z,96479.34
2023-03-26T16:52:54.464Z,96473.44
2023-03-26T16:55:43.300Z,96475.44
2023-03-26T16:58:31.522Z,96472.38
2023-03-26T17:01:00.698Z,96460.50
2023-03-26T17:03:33.965Z,96461.88
2023-03-26T17:06:29.667Z,96454.13
2023-03-26T17:09:01.322Z,96450.38
2023-03-26T17:11:39.981Z,96447.88
2023-03-26T17:14:27.282Z,96450.88
2023-03-26T17:17:02.768Z,96447.81
2023-03-26T17:19:59.808Z,96450.19
2023-03-26T17:22:40.989Z,96453.44
2023-03-26T17:25:25.698Z,96451.47
2023-03-26T17:27:52.148Z,96457.59
2023-03-26T17:30:42.831Z,96456.53
2023-03-26T17:33:14.436Z,96454.25
2023-03-26T17:35:42.374Z,96456.25
2023-03-26T17:38:28.709Z,96454.00
2023-03-26T17:40:56.847Z,96455.41
2023-03-26T17:43:46.339Z,96458.97
2023-03-26T17:46:17.337Z,96454.50
2023-03-26T17:48:46.909Z,96446.25
2023-03-26T17:51:27.121Z,96443.06
2023-03-26T17:53:53.557Z,96440.91
2023-03-26T17:56:22.812Z,96442.44
2023-03-26T17:58:50.758Z,96445.47
2023-03-26T18:01:32.401Z,96452.81
2023-03-26T18:04:00.643Z,96466.19
2023-03-26T18:06:36.105Z,96465.41
2023-03-26T18:09:37.839Z,96464.59
2023-03-26T18:12:22.023Z,96459.84
2023-03-26T18:15:17.949Z,96455.88
2023-03-26T18:17:46.148Z,96471.06
2023-03-26T18:20:26.947Z,96463.59
2023-03-26T18:22:53.522Z,96474.97
2023-03-26T18:25:32.270Z,96467.63
2023-03-26T18:27:59.548Z,96472.16
2023-03-26T18:30:26.330Z,96480.03
2023-03-26T18:33:00.886Z,96488.31
2023-03-26T18:35:36.201Z,96502.13
2023-03-26T18:38:03.639Z,96496.31
2023-03-26T18:40:34.031Z,96490.09
2023-03-26T18:43:01.088Z,96491.69
2023-03-26T18:45:29.598Z,96483.47
2023-03-26T18:47:57.606Z,96488.16
2023-03-26T18:50:36.562Z,96488.63
2023-03-26T18:53:07.937Z,96488.09
2023-03-26T18:55:39.222Z,96492.59
2023-03-26T18:58:32.783Z,96496.88
2023-03-26T19:01:00.893Z,96488.41
2023-03-26T19:03:27.596Z,96487.56
2023-03-26T19:05:55.730Z,96503.03
2023-03-26T19:08:23.747Z,96498.84
2023-03-26T19:10:51.013Z,96485.34
2023-03-26T19:13:19.705Z,96499.56
2023-03-26T19:15:46.833Z,96491.75
2023-03-26T19:18:17.913Z,96483.25
2023-03-26T19:21:01.051Z,96487.78
2023-03-26T19:23:33.009Z,96478.94
2023-03-26T19:26:01.697Z,96467.25
2023-03-26T19:28:30.737Z,96481.88
2023-03-26T19:31:27.136Z,96481.03
2023-03-26T19:33:55.201Z,96472.19
2023-03-26T19:36:24.457Z,96480.78
2023-03-26T19:38:52.443Z,96480.97
2023-03-26T19:41:24.840Z,96481.50
2023-03-26T19:43:55.931Z,96483.81
2023-03-26T19:46:22.910Z,96480.34
2023-03-26T19:48:52.430Z,96486.00
2023-03-26T19:51:21.506Z,96480.06
2023-03-26T19:53:52.958Z,96486.91
2023-03-26T19:56:20.821Z,96481.69
2023-03-26T19:58:47.450Z,96480.41
2023-03-26T20:01:18.755Z,96489.28
2023-03-26T20:03:46.943Z,96497.22
2023-03-26T20:06:17.846Z,96494.66
2023-03-26T20:08:44.351Z,96498.03
2023-03-26T20:11:36.526Z,96487.53
2023-03-26T20:14:07.284Z,96489.16
2023-03-26T20:16:34.176Z,96500.28
2023-03-26T20:19:04.136Z,96501.50
2023-03-26T20:21:41.252Z,96515.53
2023-03-26T20:24:15.762Z,96515.88
2023-03-26T20:26:42.815Z,96509.44
2023-03-26T20:29:10.236Z,96516.56
2023-03-26T20:31:37.560Z,96523.75
2023-03-26T20:34:04.066Z,96524.00
2023-03-26T20:36:33.020Z,96526.16
2023-03-26T20:39:07.866Z,96533.81
2023-03-26T20:41:34.607Z,96537.47
2023-03-26T20:44:03.614Z,96533.81
2023-03-26T20:46:31.374Z,96539.47
2023-03-26T20:48:58.789Z,96535.44
2023-03-26T20:51:27.979Z,96540.63
2023-03-26T20:53:55.359Z,96538.19
2023-03-26T20:56:21.968Z,96539.47
2023-03-26T20:59:09.883Z,96538.53
2023-03-26T21:01:38.186Z,96540.88
2023-03-26T21:04:05.307Z,96537.22
2023-03-26T21:06:31.935Z,96534.88
2023-03-26T21:08:58.896Z,96517.63
2023-03-26T21:11:50.287Z,96528.56
2023-03-26T21:14:28.092Z,96530.50
2023-03-26T21:16:54.847Z,96534.34
2023-03-26T21:19:21.565Z,96526.75
2023-03-26T21:21:50.852Z,96530.94
2023-03-26T21:24:39.975Z,96532.75
2023-03-26T21:27:26.629Z,96528.81
2023-03-26T21:29:57.709Z,96523.72
2023-03-26T21:32:24.468Z,96531.50
2023-03-26T21:34:58.763Z,96532.16
2023-03-26T21:37:26.525Z,96538.44
2023-03-26T21:39:53.444Z,96537.44
2023-03-26T21:42:20.152Z,96539.44
2023-03-26T21:44:46.913Z,96539.13
2023-03-26T21:47:14.028Z,96544.06
2023-03-26T21:49:40.714Z,96539.78
2023-03-26T21:52:09.498Z,96544.38
2023-03-26T21:54:37.095Z,96544.03
2023-03-26T21:57:21.750Z,96545.19
2023-03-26T22:00:08.383Z,96544.72
2023-03-26T22:03:12.004Z,96547.19
2023-03-26T22:05:50.016Z,96545.19
2023-03-26T22:08:29.790Z,96544.38
2023-03-26T22:10:56.485Z,96552.25
2023-03-26T22:13:23.089Z,96551.53
2023-03-26T22:15:49.932Z,96553.53
2023-03-26T22:18:16.825Z,96553.53
2023-03-26T22:20:43.315Z,96556.50
2023-03-26T22:23:09.815Z,96552.25
2023-03-26T22:25:36.340Z,96545.38
2023-03-26T22:28:04.261Z,96544.72
2023-03-26T22:30:30.833Z,96549.63
2023-03-26T22:32:58.780Z,96555.94
2023-03-26T22:35:26.135Z,96551.59
2023-03-26T22:37:52.763Z,96550.38
2023-03-26T22:40:27.665Z,96554.66
2023-03-26T22:42:54.133Z,96547.34
2023-03-26T22:45:20.610Z,96548.34
2023-03-26T22:47:47.259Z,96549.06
2023-03-26T22:50:13.862Z,96549.41
2023-03-26T22:52:41.028Z,96546.31
2023-03-26T22:55:08.084Z,96558.22
2023-03-26T22:57:34.624Z,96548.28
2023-03-26T23:00:15.516Z,96555.06
2023-03-26T23:02:44.813Z,96558.31
2023-03-26T23:05:12.516Z,96560.66
2023-03-26T23:07:40.258Z,96552.22
2023-03-26T23:10:07.475Z,96550.81
2023-03-26T23:12:33.936Z,96555.81
2023-03-26T23:15:04.941Z,96551.22
2023-03-26T23:17:35.390Z,96563.19
2023-03-26T23:20:11.688Z,96555.56
2023-03-26T23:22:38.215Z,96553.44
2023-03-26T23:25:04.902Z,96556.72
2023-03-26T23:27:32.877Z,96564.81
2023-03-26T23:29:59.332Z,96569.47
2023-03-26T23:32:25.934Z,96566.34
2023-03-26T23:34:52.780Z,96569.44
2023-03-26T23:37:23.085Z,96571.59
2023-03-26T23:39:52.983Z,96566.16
2023-03-26T23:42:29.303Z,96566.34
2023-03-26T23:44:56.917Z,96559.53
2023-03-26T23:47:23.728Z,96569.75
2023-03-26T23:49:50.421Z,96563.63
2023-03-26T23:52:16.976Z,96559.88
2023-03-26T23:54:44.672Z,96565.16
2023-03-26T23:57:11.368Z,96555.91
2023-03-26T23:59:38.894Z,96563.63
